sensor_id;sensor_type;location;lat;lon;timestamp;pressure;altitude;pressure_sealevel;temperature;humidity
8318;BME280;4196;48.926;8.964;2023-02-28T00:01:56;99821.59;;;-2.43;87.35
8318;BME280;4196;48.926;8.964;2023-02-28T00:04:42;99814.38;;;-2.37;87.17
8318;BME280;4196;48.926;8.964;2023-02-28T00:07:30;99843.13;;;-2.23;86.89
8318;BME280;4196;48.926;8.964;2023-02-28T00:10:22;99844.78;;;-2.24;87.44
8318;BME280;4196;48.926;8.964;2023-02-28T00:13:09;99815.75;;;-2.42;87.44
8318;BME280;4196;48.926;8.964;2023-02-28T00:16:05;99825.69;;;-2.32;87.69
8318;BME280;4196;48.926;8.964;2023-02-28T00:18:51;99807.88;;;-2.47;87.95
8318;BME280;4196;48.926;8.964;2023-02-28T00:21:38;99773.22;;;-2.74;88.34
8318;BME280;4196;48.926;8.964;2023-02-28T00:24:27;99826.66;;;-2.43;89.10
8318;BME280;4196;48.926;8.964;2023-02-28T00:27:14;99790.66;;;-2.65;89.74
8318;BME280;4196;48.926;8.964;2023-02-28T00:30:00;99842.31;;;-2.50;90.24
8318;BME280;4196;48.926;8.964;2023-02-28T00:32:49;99764.38;;;-2.81;90.82
8318;BME280;4196;48.926;8.964;2023-02-28T00:35:35;99786.22;;;-2.83;91.05
8318;BME280;4196;48.926;8.964;2023-02-28T00:38:22;99804.13;;;-2.67;91.21
8318;BME280;4196;48.926;8.964;2023-02-28T00:41:08;99797.91;;;-2.72;91.55
8318;BME280;4196;48.926;8.964;2023-02-28T00:43:55;99786.22;;;-2.83;91.50
8318;BME280;4196;48.926;8.964;2023-02-28T00:46:42;99808.31;;;-2.67;91.75
8318;BME280;4196;48.926;8.964;2023-02-28T00:49:28;99751.84;;;-3.06;91.38
8318;BME280;4196;48.926;8.964;2023-02-28T00:52:14;99791.28;;;-2.83;91.69
8318;BME280;4196;48.926;8.964;2023-02-28T00:55:00;99784.78;;;-2.93;92.49
8318;BME280;4196;48.926;8.964;2023-02-28T00:57:47;99815.84;;;-2.82;92.97
8318;BME280;4196;48.926;8.964;2023-02-28T01:00:33;99805.56;;;-2.98;93.98
8318;BME280;4196;48.926;8.964;2023-02-28T01:03:20;99827.84;;;-2.79;94.09
8318;BME280;4196;48.926;8.964;2023-02-28T01:06:08;99801.53;;;-2.95;93.78
8318;BME280;4196;48.926;8.964;2023-02-28T01:08:54;99799.97;;;-2.93;93.96
8318;BME280;4196;48.926;8.964;2023-02-28T01:11:42;99726.19;;;-3.38;94.21
8318;BME280;4196;48.926;8.964;2023-02-28T01:14:29;99798.78;;;-2.84;93.50
8318;BME280;4196;48.926;8.964;2023-02-28T01:17:16;99795.91;;;-3.04;94.36
8318;BME280;4196;48.926;8.964;2023-02-28T01:20:02;99802.44;;;-2.94;94.43
8318;BME280;4196;48.926;8.964;2023-02-28T01:22:49;99814.00;;;-2.84;94.15
8318;BME280;4196;48.926;8.964;2023-02-28T01:25:36;99814.69;;;-2.87;94.13
8318;BME280;4196;48.926;8.964;2023-02-28T01:28:23;99778.88;;;-3.20;95.04
8318;BME280;4196;48.926;8.964;2023-02-28T01:31:10;99808.06;;;-3.11;95.78
8318;BME280;4196;48.926;8.964;2023-02-28T01:33:57;99790.75;;;-3.19;96.16
8318;BME280;4196;48.926;8.964;2023-02-28T01:36:47;99824.81;;;-3.13;96.63
8318;BME280;4196;48.926;8.964;2023-02-28T01:39:33;99798.03;;;-3.36;97.16
8318;BME280;4196;48.926;8.964;2023-02-28T01:42:20;99818.19;;;-3.25;97.60
8318;BME280;4196;48.926;8.964;2023-02-28T01:48:09;99774.75;;;-3.57;98.90
8318;BME280;4196;48.926;8.964;2023-02-28T01:51:00;99832.22;;;-3.30;99.45
8318;BME280;4196;48.926;8.964;2023-02-28T01:53:52;99788.88;;;-3.48;99.14
8318;BME280;4196;48.926;8.964;2023-02-28T01:56:46;99797.34;;;-3.47;99.81
8318;BME280;4196;48.926;8.964;2023-02-28T01:59:39;99799.09;;;-3.59;100.00
8318;BME280;4196;48.926;8.964;2023-02-28T02:02:37;99803.97;;;-3.49;100.00
8318;BME280;4196;48.926;8.964;2023-02-28T02:05:26;99794.63;;;-3.50;100.00
8318;BME280;4196;48.926;8.964;2023-02-28T02:08:18;99769.69;;;-3.71;100.00
8318;BME280;4196;48.926;8.964;2023-02-28T02:11:07;99812.34;;;-3.50;100.00
8318;BME280;4196;48.926;8.964;2023-02-28T02:17:25;99788.59;;;-3.52;100.00
8318;BME280;4196;48.926;8.964;2023-02-28T02:36:33;99774.28;;;-3.12;100.00
8318;BME280;4196;48.926;8.964;2023-02-28T02:42:21;99769.19;;;-2.99;100.00
8318;BME280;4196;48.926;8.964;2023-02-28T02:45:26;99765.50;;;-3.04;100.00
8318;BME280;4196;48.926;8.964;2023-02-28T02:48:18;99733.16;;;-3.08;100.00
8318;BME280;4196;48.926;8.964;2023-02-28T02:51:11;99766.44;;;-2.88;100.00
8318;BME280;4196;48.926;8.964;2023-02-28T02:54:08;99781.03;;;-2.84;100.00
8318;BME280;4196;48.926;8.964;2023-02-28T02:57:02;99786.22;;;-2.83;100.00
8318;BME280;4196;48.926;8.964;2023-02-28T02:59:51;99758.75;;;-3.03;100.00
8318;BME280;4196;48.926;8.964;2023-02-28T03:02:40;99771.63;;;-3.00;100.00
8318;BME280;4196;48.926;8.964;2023-02-28T03:05:34;99731.53;;;-3.34;100.00
8318;BME280;4196;48.926;8.964;2023-02-28T03:08:22;99731.34;;;-3.37;100.00
8318;BME280;4196;48.926;8.964;2023-02-28T03:11:13;99733.88;;;-3.37;100.00
8318;BME280;4196;48.926;8.964;2023-02-28T03:17:33;99762.22;;;-3.16;100.00
8318;BME280;4196;48.926;8.964;2023-02-28T03:20:35;99795.28;;;-2.86;100.00
8318;BME280;4196;48.926;8.964;2023-02-28T03:26:42;99791.66;;;-2.77;100.00
8318;BME280;4196;48.926;8.964;2023-02-28T03:29:37;99793.22;;;-2.79;100.00
8318;BME280;4196;48.926;8.964;2023-02-28T03:32:34;99755.16;;;-3.07;100.00
8318;BME280;4196;48.926;8.964;2023-02-28T03:35:37;99762.75;;;-2.94;100.00
8318;BME280;4196;48.926;8.964;2023-02-28T03:38:33;99795.72;;;-2.65;100.00
8318;BME280;4196;48.926;8.964;2023-02-28T03:41:26;99784.72;;;-2.66;100.00
8318;BME280;4196;48.926;8.964;2023-02-28T03:44:30;99766.16;;;-2.80;100.00
8318;BME280;4196;48.926;8.964;2023-02-28T03:47:28;99790.56;;;-2.54;99.42
8318;BME280;4196;48.926;8.964;2023-02-28T03:53:16;99765.16;;;-2.69;99.52
8318;BME280;4196;48.926;8.964;2023-02-28T03:56:24;99764.75;;;-2.75;100.00
8318;BME280;4196;48.926;8.964;2023-02-28T03:59:17;99756.56;;;-2.71;100.00
8318;BME280;4196;48.926;8.964;2023-02-28T04:02:04;99793.50;;;-2.61;100.00
8318;BME280;4196;48.926;8.964;2023-02-28T04:04:51;99740.31;;;-2.87;99.59
8318;BME280;4196;48.926;8.964;2023-02-28T04:07:37;99774.69;;;-2.78;100.00
8318;BME280;4196;48.926;8.964;2023-02-28T04:10:24;99798.03;;;-2.55;99.65
8318;BME280;4196;48.926;8.964;2023-02-28T04:13:10;99787.16;;;-2.68;99.82
8318;BME280;4196;48.926;8.964;2023-02-28T04:15:56;99775.09;;;-2.72;99.90
8318;BME280;4196;48.926;8.964;2023-02-28T04:18:43;99767.50;;;-2.72;100.00
8318;BME280;4196;48.926;8.964;2023-02-28T04:21:51;99752.28;;;-2.72;99.55
8318;BME280;4196;48.926;8.964;2023-02-28T04:24:36;99769.50;;;-2.66;99.19
8318;BME280;4196;48.926;8.964;2023-02-28T04:27:22;99788.78;;;-2.55;99.28
8318;BME280;4196;48.926;8.964;2023-02-28T04:30:10;99774.28;;;-2.57;99.29
8318;BME280;4196;48.926;8.964;2023-02-28T04:32:56;99779.44;;;-2.56;99.69
8318;BME280;4196;48.926;8.964;2023-02-28T04:35:43;99757.88;;;-2.62;98.87
8318;BME280;4196;48.926;8.964;2023-02-28T04:38:32;99788.41;;;-2.33;99.00
8318;BME280;4196;48.926;8.964;2023-02-28T04:41:19;99783.94;;;-2.37;98.94
8318;BME280;4196;48.926;8.964;2023-02-28T04:44:05;99760.41;;;-2.49;99.55
8318;BME280;4196;48.926;8.964;2023-02-28T04:46:52;99806.28;;;-2.31;99.22
8318;BME280;4196;48.926;8.964;2023-02-28T04:49:38;99793.91;;;-2.40;100.00
8318;BME280;4196;48.926;8.964;2023-02-28T04:52:27;99749.22;;;-2.66;100.00
8318;BME280;4196;48.926;8.964;2023-02-28T04:55:13;99747.47;;;-2.67;100.00
8318;BME280;4196;48.926;8.964;2023-02-28T04:58:00;99752.06;;;-2.61;100.00
8318;BME280;4196;48.926;8.964;2023-02-28T05:00:46;99743.66;;;-2.60;100.00
8318;BME280;4196;48.926;8.964;2023-02-28T05:03:32;99752.22;;;-2.58;99.88
8318;BME280;4196;48.926;8.964;2023-02-28T05:06:19;99793.06;;;-2.26;99.22
8318;BME280;4196;48.926;8.964;2023-02-28T05:09:06;99778.88;;;-2.37;99.24
8318;BME280;4196;48.926;8.964;2023-02-28T05:11:53;99792.47;;;-2.22;99.30
8318;BME280;4196;48.926;8.964;2023-02-28T05:14:39;99738.19;;;-2.53;99.58
8318;BME280;4196;48.926;8.964;2023-02-28T05:17:25;99773.38;;;-2.30;99.26
8318;BME280;4196;48.926;8.964;2023-02-28T05:20:12;99774.53;;;-2.25;98.55
8318;BME280;4196;48.926;8.964;2023-02-28T05:23:01;99788.59;;;-2.30;98.91
8318;BME280;4196;48.926;8.964;2023-02-28T05:25:48;99805.91;;;-2.09;97.89
8318;BME280;4196;48.926;8.964;2023-02-28T05:28:34;99768.91;;;-2.34;97.26
8318;BME280;4196;48.926;8.964;2023-02-28T05:31:21;99808.31;;;-2.11;97.67
8318;BME280;4196;48.926;8.964;2023-02-28T05:34:08;99786.50;;;-2.22;97.21
8318;BME280;4196;48.926;8.964;2023-02-28T05:36:57;99762.09;;;-2.35;96.80
8318;BME280;4196;48.926;8.964;2023-02-28T05:39:43;99793.81;;;-2.13;96.61
8318;BME280;4196;48.926;8.964;2023-02-28T05:42:29;99764.56;;;-2.22;96.42
8318;BME280;4196;48.926;8.964;2023-02-28T05:45:16;99809.94;;;-1.98;96.16
8318;BME280;4196;48.926;8.964;2023-02-28T05:48:03;99761.25;;;-2.21;96.06
8318;BME280;4196;48.926;8.964;2023-02-28T05:50:49;99774.69;;;-2.22;95.97
8318;BME280;4196;48.926;8.964;2023-02-28T05:53:36;99776.28;;;-2.24;96.88
8318;BME280;4196;48.926;8.964;2023-02-28T05:56:22;99772.72;;;-2.12;96.20
8318;BME280;4196;48.926;8.964;2023-02-28T05:59:08;99797.44;;;-1.95;95.62
8318;BME280;4196;48.926;8.964;2023-02-28T06:01:55;99756.88;;;-2.23;95.50
8318;BME280;4196;48.926;8.964;2023-02-28T06:04:43;99790.28;;;-1.87;94.21
8318;BME280;4196;48.926;8.964;2023-02-28T06:07:30;99789.47;;;-2.01;95.28
8318;BME280;4196;48.926;8.964;2023-02-28T06:10:16;99764.75;;;-2.19;94.58
8318;BME280;4196;48.926;8.964;2023-02-28T06:13:04;99799.97;;;-1.95;94.30
8318;BME280;4196;48.926;8.964;2023-02-28T06:15:50;99779.91;;;-2.05;94.00
8318;BME280;4196;48.926;8.964;2023-02-28T06:18:37;99785.59;;;-2.09;94.32
8318;BME280;4196;48.926;8.964;2023-02-28T06:21:24;99817.84;;;-1.79;94.15
8318;BME280;4196;48.926;8.964;2023-02-28T06:24:10;99813.38;;;-1.83;94.21
8318;BME280;4196;48.926;8.964;2023-02-28T06:26:57;99794.59;;;-2.00;93.93
8318;BME280;4196;48.926;8.964;2023-02-28T06:29:53;99783.16;;;-1.93;93.28
8318;BME280;4196;48.926;8.964;2023-02-28T06:32:40;99791.75;;;-1.91;93.52
8318;BME280;4196;48.926;8.964;2023-02-28T06:35:27;99805.75;;;-1.83;93.21
8318;BME280;4196;48.926;8.964;2023-02-28T06:38:13;99796.28;;;-2.00;93.44
8318;BME280;4196;48.926;8.964;2023-02-28T06:41:00;99802.16;;;-1.86;92.49
8318;BME280;4196;48.926;8.964;2023-02-28T06:43:47;99801.72;;;-1.94;92.47
8318;BME280;4196;48.926;8.964;2023-02-28T06:46:33;99821.78;;;-1.84;92.23
8318;BME280;4196;48.926;8.964;2023-02-28T06:49:20;99841.81;;;-1.74;92.63
8318;BME280;4196;48.926;8.964;2023-02-28T06:52:06;99808.97;;;-1.85;91.90
8318;BME280;4196;48.926;8.964;2023-02-28T06:54:53;99842.78;;;-1.72;91.94
8318;BME280;4196;48.926;8.964;2023-02-28T06:57:45;99808.28;;;-1.98;92.32
8318;BME280;4196;48.926;8.964;2023-02-28T07:00:32;99810.44;;;-2.04;92.37
8318;BME280;4196;48.926;8.964;2023-02-28T07:03:19;99852.75;;;-1.75;92.32
8318;BME280;4196;48.926;8.964;2023-02-28T07:06:06;99837.34;;;-1.78;92.45
8318;BME280;4196;48.926;8.964;2023-02-28T07:08:53;99843.41;;;-1.76;92.74
8318;BME280;4196;48.926;8.964;2023-02-28T07:11:40;99809.59;;;-1.89;92.04
8318;BME280;4196;48.926;8.964;2023-02-28T07:14:29;99836.91;;;-1.71;91.82
8318;BME280;4196;48.926;8.964;2023-02-28T07:17:15;99841.47;;;-1.80;91.89
8318;BME280;4196;48.926;8.964;2023-02-28T07:20:01;99833.00;;;-1.80;91.95
8318;BME280;4196;48.926;8.964;2023-02-28T07:22:51;99875.81;;;-1.57;91.68
8318;BME280;4196;48.926;8.964;2023-02-28T07:25:42;99841.69;;;-1.62;91.16
8318;BME280;4196;48.926;8.964;2023-02-28T07:28:28;99859.19;;;-1.52;91.13
8318;BME280;4196;48.926;8.964;2023-02-28T07:31:16;99827.31;;;-1.76;91.33
8318;BME280;4196;48.926;8.964;2023-02-28T07:34:03;99818.97;;;-1.74;90.87
8318;BME280;4196;48.926;8.964;2023-02-28T07:36:52;99855.69;;;-1.39;90.14
8318;BME280;4196;48.926;8.964;2023-02-28T07:39:39;99869.19;;;-1.25;89.14
8318;BME280;4196;48.926;8.964;2023-02-28T07:42:28;99843.19;;;-1.36;88.60
8318;BME280;4196;48.926;8.964;2023-02-28T07:45:14;99855.44;;;-1.29;88.90
8318;BME280;4196;48.926;8.964;2023-02-28T07:48:01;99872.16;;;-1.17;88.24
8318;BME280;4196;48.926;8.964;2023-02-28T07:50:55;99801.63;;;-1.51;88.22
8318;BME280;4196;48.926;8.964;2023-02-28T07:53:41;99862.00;;;-1.17;88.05
8318;BME280;4196;48.926;8.964;2023-02-28T07:56:28;99848.69;;;-1.13;87.51
8318;BME280;4196;48.926;8.964;2023-02-28T07:59:15;99841.50;;;-1.20;87.28
8318;BME280;4196;48.926;8.964;2023-02-28T08:02:01;99843.59;;;-1.13;86.70
8318;BME280;4196;48.926;8.964;2023-02-28T08:04:48;99823.13;;;-1.46;87.64
8318;BME280;4196;48.926;8.964;2023-02-28T08:07:35;99871.63;;;-1.12;87.59
8318;BME280;4196;48.926;8.964;2023-02-28T08:10:21;99856.56;;;-1.24;87.85
8318;BME280;4196;48.926;8.964;2023-02-28T08:13:08;99859.97;;;-1.08;86.83
8318;BME280;4196;48.926;8.964;2023-02-28T08:15:54;99857.44;;;-1.08;85.50
8318;BME280;4196;48.926;8.964;2023-02-28T08:18:41;99858.72;;;-1.00;86.67
8318;BME280;4196;48.926;8.964;2023-02-28T08:21:27;99876.50;;;-0.85;85.31
8318;BME280;4196;48.926;8.964;2023-02-28T08:24:14;99833.25;;;-1.02;84.35
8318;BME280;4196;48.926;8.964;2023-02-28T08:27:00;99840.25;;;-1.12;83.66
8318;BME280;4196;48.926;8.964;2023-02-28T08:29:47;99848.16;;;-1.23;83.86
8318;BME280;4196;48.926;8.964;2023-02-28T08:32:33;99888.78;;;-0.93;84.02
8318;BME280;4196;48.926;8.964;2023-02-28T08:35:20;99869.88;;;-0.98;83.93
8318;BME280;4196;48.926;8.964;2023-02-28T08:38:06;99854.78;;;-0.95;82.64
8318;BME280;4196;48.926;8.964;2023-02-28T08:41:04;99844.63;;;-0.95;83.09
8318;BME280;4196;48.926;8.964;2023-02-28T08:43:53;99861.78;;;-0.91;82.41
8318;BME280;4196;48.926;8.964;2023-02-28T08:46:40;99885.25;;;-0.65;82.34
8318;BME280;4196;48.926;8.964;2023-02-28T08:49:26;99851.63;;;-0.91;81.88
8318;BME280;4196;48.926;8.964;2023-02-28T08:52:12;99837.94;;;-0.93;81.41
8318;BME280;4196;48.926;8.964;2023-02-28T08:54:58;99860.53;;;-0.83;82.36
8318;BME280;4196;48.926;8.964;2023-02-28T08:57:45;99834.88;;;-0.87;81.28
8318;BME280;4196;48.926;8.964;2023-02-28T09:00:31;99867.28;;;-0.68;81.08
8318;BME280;4196;48.926;8.964;2023-02-28T09:03:18;99896.25;;;-0.50;80.99
8318;BME280;4196;48.926;8.964;2023-02-28T09:06:06;99869.22;;;-0.48;80.27
8318;BME280;4196;48.926;8.964;2023-02-28T09:08:52;99888.59;;;-0.19;79.73
8318;BME280;4196;48.926;8.964;2023-02-28T09:11:39;99870.97;;;-0.47;80.08
8318;BME280;4196;48.926;8.964;2023-02-28T09:14:25;99855.50;;;-0.35;79.10
8318;BME280;4196;48.926;8.964;2023-02-28T09:17:11;99862.91;;;0.09;76.73
8318;BME280;4196;48.926;8.964;2023-02-28T09:19:58;99889.56;;;0.32;74.58
8318;BME280;4196;48.926;8.964;2023-02-28T09:22:44;99878.50;;;0.32;74.05
8318;BME280;4196;48.926;8.964;2023-02-28T09:25:30;99865.28;;;0.39;72.68
8318;BME280;4196;48.926;8.964;2023-02-28T09:28:17;99853.44;;;0.23;73.80
8318;BME280;4196;48.926;8.964;2023-02-28T09:31:03;99850.88;;;0.39;73.39
8318;BME280;4196;48.926;8.964;2023-02-28T09:33:52;99900.03;;;0.71;72.89
8318;BME280;4196;48.926;8.964;2023-02-28T09:36:40;99876.56;;;0.60;72.11
8318;BME280;4196;48.926;8.964;2023-02-28T09:39:31;99891.03;;;0.78;72.01
8318;BME280;4196;48.926;8.964;2023-02-28T09:42:25;99878.78;;;0.70;71.42
8318;BME280;4196;48.926;8.964;2023-02-28T09:45:47;99901.31;;;0.97;70.77
8318;BME280;4196;48.926;8.964;2023-02-28T09:48:39;99894.66;;;0.83;70.68
8318;BME280;4196;48.926;8.964;2023-02-28T09:51:33;99910.78;;;0.82;70.76
8318;BME280;4196;48.926;8.964;2023-02-28T09:54:24;99871.91;;;0.69;71.53
8318;BME280;4196;48.926;8.964;2023-02-28T10:03:25;99908.97;;;0.97;69.74
8318;BME280;4196;48.926;8.964;2023-02-28T10:06:18;99905.06;;;1.22;71.84
8318;BME280;4196;48.926;8.964;2023-02-28T10:09:14;99874.16;;;1.15;70.50
8318;BME280;4196;48.926;8.964;2023-02-28T10:12:05;99881.13;;;1.02;68.88
8318;BME280;4196;48.926;8.964;2023-02-28T10:14:53;99898.94;;;1.36;69.91
8318;BME280;4196;48.926;8.964;2023-02-28T10:17:43;99907.25;;;1.50;68.13
8318;BME280;4196;48.926;8.964;2023-02-28T10:20:46;99903.84;;;1.68;66.94
8318;BME280;4196;48.926;8.964;2023-02-28T10:23:37;99904.47;;;2.00;66.80
8318;BME280;4196;48.926;8.964;2023-02-28T10:26:26;99881.53;;;1.82;66.79
8318;BME280;4196;48.926;8.964;2023-02-28T10:29:15;99911.75;;;2.30;65.67
8318;BME280;4196;48.926;8.964;2023-02-28T10:32:03;99904.06;;;2.49;66.08
8318;BME280;4196;48.926;8.964;2023-02-28T10:37:48;99912.88;;;2.36;63.85
8318;BME280;4196;48.926;8.964;2023-02-28T10:40:35;99906.22;;;2.59;63.18
8318;BME280;4196;48.926;8.964;2023-02-28T10:43:23;99875.84;;;1.88;63.83
8318;BME280;4196;48.926;8.964;2023-02-28T10:46:13;99859.59;;;1.87;65.04
8318;BME280;4196;48.926;8.964;2023-02-28T10:49:06;99912.44;;;1.88;64.59
8318;BME280;4196;48.926;8.964;2023-02-28T10:52:00;99909.72;;;2.03;65.61
8318;BME280;4196;48.926;8.964;2023-02-28T10:54:46;99902.06;;;2.23;64.93
8318;BME280;4196;48.926;8.964;2023-02-28T10:57:33;99909.72;;;2.23;63.95
8318;BME280;4196;48.926;8.964;2023-02-28T11:00:22;99911.22;;;2.17;65.45
8318;BME280;4196;48.926;8.964;2023-02-28T11:03:33;99907.16;;;2.03;64.20
8318;BME280;4196;48.926;8.964;2023-02-28T11:06:22;99898.53;;;2.01;65.36
8318;BME280;4196;48.926;8.964;2023-02-28T11:09:38;99895.31;;;2.05;64.74
8318;BME280;4196;48.926;8.964;2023-02-28T11:12:38;99899.16;;;2.34;64.40
8318;BME280;4196;48.926;8.964;2023-02-28T11:15:37;99897.13;;;2.27;65.03
8318;BME280;4196;48.926;8.964;2023-02-28T11:21:30;99893.59;;;2.43;62.79
8318;BME280;4196;48.926;8.964;2023-02-28T11:24:32;99863.59;;;2.20;63.44
8318;BME280;4196;48.926;8.964;2023-02-28T11:30:25;99889.91;;;2.57;63.88
8318;BME280;4196;48.926;8.964;2023-02-28T11:33:29;99885.47;;;2.73;62.81
8318;BME280;4196;48.926;8.964;2023-02-28T11:36:26;99876.56;;;2.84;63.24
8318;BME280;4196;48.926;8.964;2023-02-28T11:39:13;99878.66;;;2.73;61.87
8318;BME280;4196;48.926;8.964;2023-02-28T11:48:14;99886.53;;;2.78;63.55
8318;BME280;4196;48.926;8.964;2023-02-28T11:51:14;99882.34;;;2.80;63.27
8318;BME280;4196;48.926;8.964;2023-02-28T11:54:28;99880.53;;;2.98;61.85
8318;BME280;4196;48.926;8.964;2023-02-28T12:00:19;99873.81;;;3.21;60.91
8318;BME280;4196;48.926;8.964;2023-02-28T12:06:15;99873.41;;;3.33;61.33
8318;BME280;4196;48.926;8.964;2023-02-28T12:09:20;99868.28;;;3.78;59.92
8318;BME280;4196;48.926;8.964;2023-02-28T12:15:48;99867.81;;;4.34;57.15
8318;BME280;4196;48.926;8.964;2023-02-28T12:18:49;99855.97;;;4.89;56.95
8318;BME280;4196;48.926;8.964;2023-02-28T12:27:48;99828.16;;;5.30;54.28
8318;BME280;4196;48.926;8.964;2023-02-28T12:30:37;99846.78;;;5.80;53.85
8318;BME280;4196;48.926;8.964;2023-02-28T12:33:33;99812.59;;;5.24;51.57
8318;BME280;4196;48.926;8.964;2023-02-28T12:36:21;99828.59;;;5.44;51.65
8318;BME280;4196;48.926;8.964;2023-02-28T12:39:23;99808.66;;;5.08;51.73
8318;BME280;4196;48.926;8.964;2023-02-28T12:42:14;99798.72;;;5.47;53.19
8318;BME280;4196;48.926;8.964;2023-02-28T12:45:18;99822.13;;;5.56;51.45
8318;BME280;4196;48.926;8.964;2023-02-28T12:48:08;99776.97;;;5.65;50.24
8318;BME280;4196;48.926;8.964;2023-02-28T12:50:58;99795.19;;;5.15;51.61
8318;BME280;4196;48.926;8.964;2023-02-28T12:53:54;99750.09;;;4.68;53.51
8318;BME280;4196;48.926;8.964;2023-02-28T12:59:57;99817.28;;;4.83;53.85
8318;BME280;4196;48.926;8.964;2023-02-28T13:09:02;99813.25;;;4.39;54.51
8318;BME280;4196;48.926;8.964;2023-02-28T13:11:52;99782.38;;;4.11;56.41
8318;BME280;4196;48.926;8.964;2023-02-28T13:14:40;99785.22;;;4.70;55.23
8318;BME280;4196;48.926;8.964;2023-02-28T13:17:26;99802.66;;;4.80;54.78
8318;BME280;4196;48.926;8.964;2023-02-28T13:20:23;99810.91;;;5.26;54.01
8318;BME280;4196;48.926;8.964;2023-02-28T13:23:40;99806.34;;;5.73;52.23
8318;BME280;4196;48.926;8.964;2023-02-28T13:37:43;99803.09;;;5.50;52.38
8318;BME280;4196;48.926;8.964;2023-02-28T13:40:32;99786.09;;;5.25;53.38
8318;BME280;4196;48.926;8.964;2023-02-28T13:49:35;99795.47;;;5.24;53.45
8318;BME280;4196;48.926;8.964;2023-02-28T13:52:23;99793.25;;;5.35;53.23
8318;BME280;4196;48.926;8.964;2023-02-28T13:55:34;99807.09;;;5.40;52.69
8318;BME280;4196;48.926;8.964;2023-02-28T14:05:19;99807.09;;;4.59;55.22
8318;BME280;4196;48.926;8.964;2023-02-28T14:08:18;99815.53;;;4.82;54.41
8318;BME280;4196;48.926;8.964;2023-02-28T14:11:24;99809.88;;;4.92;53.66
8318;BME280;4196;48.926;8.964;2023-02-28T14:17:24;99784.84;;;4.85;54.92
8318;BME280;4196;48.926;8.964;2023-02-28T14:20:15;99803.41;;;4.78;55.63
8318;BME280;4196;48.926;8.964;2023-02-28T14:26:18;99810.63;;;4.63;55.54
8318;BME280;4196;48.926;8.964;2023-02-28T14:35:40;99800.09;;;4.55;56.86
8318;BME280;4196;48.926;8.964;2023-02-28T14:38:33;99800.88;;;4.52;56.62
8318;BME280;4196;48.926;8.964;2023-02-28T14:41:34;99779.09;;;4.40;56.92
8318;BME280;4196;48.926;8.964;2023-02-28T14:44:27;99797.06;;;4.41;56.11
8318;BME280;4196;48.926;8.964;2023-02-28T14:47:15;99745.53;;;4.33;56.79
8318;BME280;4196;48.926;8.964;2023-02-28T14:50:03;99784.97;;;4.63;56.93
8318;BME280;4196;48.926;8.964;2023-02-28T14:52:54;99809.59;;;4.57;56.92
8318;BME280;4196;48.926;8.964;2023-02-28T14:55:48;99809.59;;;4.57;56.45
8318;BME280;4196;48.926;8.964;2023-02-28T14:58:34;99774.00;;;4.16;56.47
8318;BME280;4196;48.926;8.964;2023-02-28T15:01:22;99779.75;;;4.34;57.24
8318;BME280;4196;48.926;8.964;2023-02-28T15:04:21;99811.13;;;4.52;57.44
8318;BME280;4196;48.926;8.964;2023-02-28T15:07:15;99818.38;;;4.39;57.44
8318;BME280;4196;48.926;8.964;2023-02-28T15:10:24;99810.34;;;4.29;57.52
8318;BME280;4196;48.926;8.964;2023-02-28T15:13:14;99795.53;;;4.21;57.36
8318;BME280;4196;48.926;8.964;2023-02-28T15:16:03;99814.84;;;4.35;58.26
8318;BME280;4196;48.926;8.964;2023-02-28T15:18:59;99814.13;;;4.39;58.04
8318;BME280;4196;48.926;8.964;2023-02-28T15:21:49;99816.94;;;4.23;57.35
8318;BME280;4196;48.926;8.964;2023-02-28T15:24:40;99825.50;;;4.23;57.34
8318;BME280;4196;48.926;8.964;2023-02-28T15:27:30;99825.44;;;4.20;58.17
8318;BME280;4196;48.926;8.964;2023-02-28T15:34:51;99801.00;;;4.06;57.78
8318;BME280;4196;48.926;8.964;2023-02-28T15:38:02;99812.94;;;4.05;58.02
8318;BME280;4196;48.926;8.964;2023-02-28T15:40:52;99802.91;;;3.87;58.48
8318;BME280;4196;48.926;8.964;2023-02-28T15:43:41;99814.56;;;4.03;58.66
8318;BME280;4196;48.926;8.964;2023-02-28T15:46:27;99793.38;;;3.83;58.48
8318;BME280;4196;48.926;8.964;2023-02-28T15:49:19;99813.59;;;4.00;59.28
8318;BME280;4196;48.926;8.964;2023-02-28T15:52:13;99810.91;;;3.97;59.74
8318;BME280;4196;48.926;8.964;2023-02-28T15:55:15;99775.94;;;3.73;59.04
8318;BME280;4196;48.926;8.964;2023-02-28T15:58:04;99821.63;;;3.86;59.38
8318;BME280;4196;48.926;8.964;2023-02-28T16:04:06;99818.63;;;3.74;60.74
8318;BME280;4196;48.926;8.964;2023-02-28T16:09:45;99796.88;;;3.63;59.93
8318;BME280;4196;48.926;8.964;2023-02-28T16:12:35;99814.88;;;3.65;60.40
8318;BME280;4196;48.926;8.964;2023-02-28T16:15:27;99817.63;;;3.69;61.25
8318;BME280;4196;48.926;8.964;2023-02-28T16:18:14;99809.16;;;3.49;60.72
8318;BME280;4196;48.926;8.964;2023-02-28T16:21:01;99818.94;;;3.59;60.93
8318;BME280;4196;48.926;8.964;2023-02-28T16:23:47;99828.16;;;3.54;60.68
8318;BME280;4196;48.926;8.964;2023-02-28T16:26:34;99827.78;;;3.45;61.35
8318;BME280;4196;48.926;8.964;2023-02-28T16:29:31;99795.59;;;3.28;61.54
8318;BME280;4196;48.926;8.964;2023-02-28T16:32:18;99826.38;;;3.31;61.97
8318;BME280;4196;48.926;8.964;2023-02-28T16:35:06;99782.56;;;3.01;61.07
8318;BME280;4196;48.926;8.964;2023-02-28T16:37:56;99806.47;;;3.01;62.29
8318;BME280;4196;48.926;8.964;2023-02-28T16:40:42;99838.25;;;3.06;62.72
8318;BME280;4196;48.926;8.964;2023-02-28T16:43:28;99804.81;;;2.81;62.52
8318;BME280;4196;48.926;8.964;2023-02-28T16:46:16;99819.34;;;2.82;62.99
8318;BME280;4196;48.926;8.964;2023-02-28T16:49:02;99815.63;;;2.74;62.68
8318;BME280;4196;48.926;8.964;2023-02-28T16:51:49;99812.56;;;2.61;63.82
8318;BME280;4196;48.926;8.964;2023-02-28T16:54:35;99819.41;;;2.62;63.49
8318;BME280;4196;48.926;8.964;2023-02-28T16:57:22;99848.97;;;2.77;64.82
8318;BME280;4196;48.926;8.964;2023-02-28T17:00:12;99857.56;;;2.79;63.73
8318;BME280;4196;48.926;8.964;2023-02-28T17:02:59;99848.09;;;2.55;63.63
8318;BME280;4196;48.926;8.964;2023-02-28T17:05:46;99845.22;;;2.48;64.12
8318;BME280;4196;48.926;8.964;2023-02-28T17:08:32;99841.13;;;2.32;64.64
8318;BME280;4196;48.926;8.964;2023-02-28T17:11:18;99837.31;;;2.22;64.46
8318;BME280;4196;48.926;8.964;2023-02-28T17:14:05;99863.25;;;2.31;65.10
8318;BME280;4196;48.926;8.964;2023-02-28T17:16:52;99839.41;;;2.11;65.02
8318;BME280;4196;48.926;8.964;2023-02-28T17:19:38;99851.09;;;2.06;65.98
8318;BME280;4196;48.926;8.964;2023-02-28T17:22:29;99823.84;;;1.87;65.78
8318;BME280;4196;48.926;8.964;2023-02-28T17:25:15;99849.88;;;1.98;65.92
8318;BME280;4196;48.926;8.964;2023-02-28T17:28:02;99850.53;;;1.94;65.81
8318;BME280;4196;48.926;8.964;2023-02-28T17:30:49;99869.38;;;1.96;66.23
8318;BME280;4196;48.926;8.964;2023-02-28T17:33:35;99864.50;;;1.83;66.38
8318;BME280;4196;48.926;8.964;2023-02-28T17:36:24;99877.44;;;1.86;66.98
8318;BME280;4196;48.926;8.964;2023-02-28T17:39:13;99882.19;;;1.78;67.63